Time;durP1;ratioP1;P1;durP2;ratioP2;P2;SDS_P1;SDS_P2;PMS_P1;PMS_P2;Temp;Humidity;BMP_temperature;BMP_pressure;BME280_temperature;BME280_humidity;BME280_pressure;Samples;Min_cycle;Max_cycle;Signal;HPM_P1;HPM_P2
2020/12/07 00:02:20;;;;;;;4.60;3.60;;;;;;;;;;5093145;28;20176;-66
2020/12/07 00:04:45;;;;;;;4.60;3.07;;;;;;;;;;5093337;28;20172;-67
2020/12/07 00:07:11;;;;;;;3.80;3.17;;;;;;;;;;5093252;28;20743;-67
2020/12/07 00:09:36;;;;;;;3.80;3.40;;;;;;;;;;5092998;28;20247;-67
2020/12/07 00:12:01;;;;;;;5.10;3.43;;;;;;;;;;5092983;28;20168;-67
2020/12/07 00:14:26;;;;;;;3.43;3.13;;;;;;;;;;5093057;28;20177;-67
2020/12/07 00:16:52;;;;;;;3.17;2.87;;;;;;;;;;5093319;28;20267;-68
2020/12/07 00:19:17;;;;;;;3.87;3.57;;;;;;;;;;5092977;28;20221;-68
2020/12/07 00:21:42;;;;;;;4.50;3.50;;;;;;;;;;5093024;28;20165;-67
2020/12/07 00:24:08;;;;;;;3.87;3.40;;;;;;;;;;5092955;28;20689;-66
2020/12/07 00:26:33;;;;;;;3.63;3.23;;;;;;;;;;5093020;28;20201;-67
2020/12/07 00:28:59;;;;;;;4.13;3.60;;;;;;;;;;5092968;28;20176;-66
2020/12/07 00:31:26;;;;;;;3.77;3.47;;;;;;;;;;5092701;28;20705;-68
2020/12/07 00:33:52;;;;;;;3.50;3.20;;;;;;;;;;5093181;28;20271;-68
2020/12/07 00:36:18;;;;;;;3.70;3.27;;;;;;;;;;5093000;28;20176;-67
2020/12/07 00:38:43;;;;;;;3.47;3.17;;;;;;;;;;5095910;28;20172;-68
2020/12/07 00:41:09;;;;;;;3.30;3.00;;;;;;;;;;5096541;28;20204;-67
2020/12/07 00:43:34;;;;;;;3.37;3.00;;;;;;;;;;5096381;28;20176;-68
2020/12/07 00:45:59;;;;;;;3.53;3.23;;;;;;;;;;5096454;28;20173;-68
2020/12/07 00:48:24;;;;;;;3.40;3.10;;;;;;;;;;5096368;28;20207;-67
2020/12/07 00:50:50;;;;;;;3.93;3.60;;;;;;;;;;5096215;28;20254;-67
2020/12/07 00:53:15;;;;;;;3.57;3.23;;;;;;;;;;5096277;28;20180;-67
2020/12/07 00:55:40;;;;;;;3.37;3.03;;;;;;;;;;5096259;28;20176;-67
2020/12/07 00:58:05;;;;;;;3.50;2.90;;;;;;;;;;5096320;28;20177;-67
2020/12/07 01:00:31;;;;;;;3.67;3.37;;;;;;;;;;5096137;28;20169;-67
2020/12/07 01:02:56;;;;;;;3.53;3.23;;;;;;;;;;5096036;28;20181;-68
2020/12/07 01:05:21;;;;;;;3.97;3.50;;;;;;;;;;5096288;28;20641;-68
2020/12/07 01:07:47;;;;;;;3.70;3.20;;;;;;;;;;5096224;28;20280;-67
2020/12/07 01:10:13;;;;;;;3.63;3.20;;;;;;;;;;5095848;28;20683;-68
2020/12/07 01:12:39;;;;;;;3.60;3.20;;;;;;;;;;5095848;28;20268;-67
2020/12/07 01:15:04;;;;;;;3.20;2.83;;;;;;;;;;5096091;28;20268;-66
2020/12/07 01:17:30;;;;;;;4.07;3.10;;;;;;;;;;5096040;28;20204;-67
2020/12/07 01:19:55;;;;;;;3.13;2.83;;;;;;;;;;5096061;28;20173;-68
2020/12/07 01:22:21;;;;;;;3.77;3.40;;;;;;;;;;5094767;28;20230;-68
2020/12/07 01:24:46;;;;;;;3.07;2.70;;;;;;;;;;5095642;28;20177;-69
2020/12/07 01:27:11;;;;;;;3.20;2.90;;;;;;;;;;5095584;28;20256;-68
2020/12/07 01:29:36;;;;;;;3.20;2.90;;;;;;;;;;5095315;28;20168;-68
2020/12/07 01:32:02;;;;;;;4.00;3.60;;;;;;;;;;5095687;28;20265;-67
2020/12/07 01:34:27;;;;;;;3.90;3.03;;;;;;;;;;5095469;28;20598;-66
2020/12/07 01:36:52;;;;;;;2.90;2.70;;;;;;;;;;5095463;28;20176;-67
2020/12/07 01:39:17;;;;;;;3.30;2.93;;;;;;;;;;5095429;28;20183;-66
2020/12/07 01:41:43;;;;;;;3.50;3.03;;;;;;;;;;5095371;28;20165;-65
2020/12/07 01:44:08;;;;;;;3.40;3.10;;;;;;;;;;5095426;28;20542;-67
2020/12/07 01:46:34;;;;;;;3.33;3.03;;;;;;;;;;5095465;28;20331;-66
2020/12/07 01:49:00;;;;;;;3.50;3.13;;;;;;;;;;5094905;28;20169;-67
2020/12/07 01:51:26;;;;;;;3.25;2.95;;;;;;;;;;5095191;28;20550;-67
2020/12/07 01:53:52;;;;;;;3.70;3.30;;;;;;;;;;5095263;28;20204;-66
2020/12/07 01:56:36;;;;;;;3.43;3.13;;;;;;;;;;5095105;28;20213;-66
2020/12/07 01:59:01;;;;;;;3.40;3.10;;;;;;;;;;5094963;28;20551;-67
2020/12/07 02:01:27;;;;;;;3.17;2.87;;;;;;;;;;5095378;28;20169;-69
2020/12/07 02:03:53;;;;;;;3.20;2.88;;;;;;;;;;5095222;28;20176;-67
2020/12/07 02:06:19;;;;;;;3.80;3.40;;;;;;;;;;5094908;28;20204;-68
2020/12/07 02:08:48;;;;;;;3.67;3.00;;;;;;;;;;5094911;28;20183;-68
2020/12/07 02:11:13;;;;;;;3.20;2.90;;;;;;;;;;5094752;28;20192;-69
2020/12/07 02:13:39;;;;;;;3.10;2.80;;;;;;;;;;5094698;28;20183;-66
2020/12/07 02:16:04;;;;;;;3.33;3.03;;;;;;;;;;5094987;28;20637;-69
2020/12/07 02:18:29;;;;;;;2.77;2.57;;;;;;;;;;5094706;28;20205;-69
2020/12/07 02:20:55;;;;;;;3.50;3.20;;;;;;;;;;5094517;28;20243;-69
2020/12/07 02:23:20;;;;;;;3.37;2.90;;;;;;;;;;5094492;28;20181;-67
2020/12/07 02:25:45;;;;;;;3.23;2.93;;;;;;;;;;5094585;28;20634;-68
2020/12/07 02:28:10;;;;;;;3.35;2.88;;;;;;;;;;5094389;28;20172;-67
2020/12/07 02:30:36;;;;;;;3.77;2.80;;;;;;;;;;5094353;28;20564;-68
2020/12/07 02:33:01;;;;;;;3.20;2.90;;;;;;;;;;5094298;28;20214;-67
2020/12/07 02:35:26;;;;;;;3.50;3.20;;;;;;;;;;5094538;28;20550;-67
2020/12/07 02:37:52;;;;;;;3.78;3.10;;;;;;;;;;5094285;28;20169;-68
2020/12/07 02:40:17;;;;;;;3.50;3.20;;;;;;;;;;5094537;28;20180;-68
2020/12/07 02:42:43;;;;;;;3.43;3.13;;;;;;;;;;5094401;28;20184;-67
2020/12/07 02:45:13;;;;;;;3.20;2.90;;;;;;;;;;5094352;28;20181;-67
2020/12/07 02:47:40;;;;;;;3.27;2.97;;;;;;;;;;5094321;28;20226;-67
2020/12/07 02:50:06;;;;;;;5.03;4.53;;;;;;;;;;5094518;28;20205;-67
2020/12/07 02:52:32;;;;;;;3.97;3.20;;;;;;;;;;5094306;28;20690;-68
2020/12/07 02:54:59;;;;;;;3.07;2.73;;;;;;;;;;5093984;28;20173;-68
2020/12/07 02:57:26;;;;;;;3.00;2.70;;;;;;;;;;5093911;28;20180;-68
2020/12/07 02:59:51;;;;;;;3.30;2.93;;;;;;;;;;5093612;28;20534;-68
2020/12/07 03:02:17;;;;;;;3.33;3.03;;;;;;;;;;5093890;28;20174;-67
2020/12/07 03:04:43;;;;;;;4.03;3.20;;;;;;;;;;5093828;28;20637;-66
2020/12/07 03:07:08;;;;;;;3.15;2.85;;;;;;;;;;5093974;28;20199;-66
2020/12/07 03:09:33;;;;;;;3.40;3.10;;;;;;;;;;5093705;28;20213;-68
2020/12/07 03:11:59;;;;;;;4.53;3.30;;;;;;;;;;5093927;28;20184;-68
2020/12/07 03:14:25;;;;;;;4.03;3.73;;;;;;;;;;5093843;28;20172;-68
2020/12/07 03:16:51;;;;;;;7.10;6.40;;;;;;;;;;5093936;28;20219;-69
2020/12/07 03:19:17;;;;;;;3.47;3.17;;;;;;;;;;5093652;28;20180;-67
2020/12/07 03:21:42;;;;;;;3.70;3.40;;;;;;;;;;5093664;28;20165;-68
2020/12/07 03:24:07;;;;;;;4.00;3.60;;;;;;;;;;5093621;28;20177;-68
2020/12/07 03:26:34;;;;;;;3.83;3.35;;;;;;;;;;5093516;28;20180;-68
2020/12/07 03:29:02;;;;;;;6.10;4.40;;;;;;;;;;5093497;28;20176;-69
2020/12/07 03:31:28;;;;;;;5.70;5.17;;;;;;;;;;5093183;28;20224;-69
2020/12/07 03:33:53;;;;;;;4.33;3.93;;;;;;;;;;5093363;28;20668;-68
2020/12/07 03:36:18;;;;;;;3.43;3.13;;;;;;;;;;5093366;28;20181;-67
2020/12/07 03:38:43;;;;;;;3.30;3.00;;;;;;;;;;5093298;28;20187;-68
2020/12/07 03:41:09;;;;;;;4.95;4.28;;;;;;;;;;5093323;28;20168;-66
2020/12/07 03:43:34;;;;;;;5.83;5.20;;;;;;;;;;5093264;28;20661;-68
2020/12/07 03:45:59;;;;;;;4.25;3.85;;;;;;;;;;5093448;28;20271;-67
2020/12/07 03:48:24;;;;;;;3.80;3.40;;;;;;;;;;5093265;28;20184;-68
2020/12/07 03:50:50;;;;;;;8.30;5.87;;;;;;;;;;5093575;28;20200;-68
2020/12/07 03:53:15;;;;;;;7.17;6.37;;;;;;;;;;5093504;28;20173;-68
2020/12/07 03:55:41;;;;;;;7.23;6.07;;;;;;;;;;5093398;28;20172;-68
2020/12/07 03:58:06;;;;;;;5.63;5.03;;;;;;;;;;5093432;28;20180;-68
2020/12/07 04:00:31;;;;;;;4.53;4.13;;;;;;;;;;5093186;28;20672;-68
2020/12/07 04:02:57;;;;;;;3.83;3.50;;;;;;;;;;5093192;28;20177;-67
2020/12/07 04:05:29;;;;;;;5.17;4.77;;;;;;;;;;5093495;28;20260;-67
2020/12/07 04:07:55;;;;;;;4.20;3.80;;;;;;;;;;5093372;28;20193;-67
2020/12/07 04:10:20;;;;;;;7.30;6.30;;;;;;;;;;5092125;28;20204;-68
2020/12/07 04:12:45;;;;;;;6.10;5.50;;;;;;;;;;5096383;28;20176;-68
2020/12/07 04:15:11;;;;;;;5.50;4.97;;;;;;;;;;5097257;28;20172;-67
2020/12/07 04:17:36;;;;;;;14.43;6.05;;;;;;;;;;5097060;28;20226;-67
2020/12/07 04:20:02;;;;;;;4.17;3.77;;;;;;;;;;5097036;28;20248;-67
2020/12/07 04:22:27;;;;;;;3.65;3.35;;;;;;;;;;5097092;28;20260;-67
2020/12/07 04:24:52;;;;;;;3.90;3.50;;;;;;;;;;5096810;28;20172;-67
2020/12/07 04:27:18;;;;;;;5.07;4.57;;;;;;;;;;5096883;28;20610;-67
2020/12/07 04:29:43;;;;;;;3.63;3.33;;;;;;;;;;5096403;28;20216;-66
2020/12/07 04:32:08;;;;;;;5.55;5.05;;;;;;;;;;5096779;28;20175;-66
2020/12/07 04:34:33;;;;;;;4.47;4.07;;;;;;;;;;5096966;28;20648;-67
2020/12/07 04:36:59;;;;;;;4.03;3.72;;;;;;;;;;5096464;28;20173;-68
2020/12/07 04:39:24;;;;;;;7.00;6.30;;;;;;;;;;5096580;28;20581;-68
2020/12/07 04:41:49;;;;;;;4.18;3.78;;;;;;;;;;5096427;28;20165;-67
2020/12/07 04:44:15;;;;;;;6.05;5.45;;;;;;;;;;5096446;28;20532;-66
2020/12/07 04:46:40;;;;;;;5.57;5.07;;;;;;;;;;5096500;28;20633;-68
2020/12/07 04:49:06;;;;;;;6.30;5.63;;;;;;;;;;5096401;28;20197;-66
2020/12/07 04:51:32;;;;;;;4.90;4.43;;;;;;;;;;5096359;28;20216;-67
2020/12/07 04:54:00;;;;;;;6.77;6.17;;;;;;;;;;5096306;28;20183;-67
2020/12/07 04:56:26;;;;;;;6.80;4.00;;;;;;;;;;5096131;28;20176;-67
2020/12/07 04:58:52;;;;;;;5.10;4.60;;;;;;;;;;5096633;28;20270;-66
2020/12/07 05:01:17;;;;;;;4.97;4.50;;;;;;;;;;5096023;28;20173;-65
2020/12/07 05:03:43;;;;;;;6.30;4.47;;;;;;;;;;5096327;28;20207;-66
2020/12/07 05:06:13;;;;;;;5.40;4.90;;;;;;;;;;5095936;28;20280;-68
2020/12/07 05:08:38;;;;;;;5.85;5.25;;;;;;;;;;5096416;28;20632;-69
2020/12/07 05:11:03;;;;;;;3.90;3.30;;;;;;;;;;5095883;28;20193;-68
2020/12/07 05:13:51;;;;;;;4.03;3.63;;;;;;;;;;5095916;28;20206;-67
2020/12/07 05:16:16;;;;;;;4.30;3.53;;;;;;;;;;5096109;28;20192;-67
2020/12/07 05:18:42;;;;;;;4.85;4.40;;;;;;;;;;5095902;28;20548;-67
2020/12/07 05:21:07;;;;;;;5.20;4.40;;;;;;;;;;5096066;28;20248;-67
2020/12/07 05:23:42;;;;;;;3.90;3.58;;;;;;;;;;5095388;28;20197;-67
2020/12/07 05:26:09;;;;;;;4.07;3.67;;;;;;;;;;5095992;28;20501;-67
2020/12/07 05:28:38;;;;;;;4.53;3.95;;;;;;;;;;5095785;28;20595;-67
2020/12/07 05:31:03;;;;;;;9.55;8.18;;;;;;;;;;5095485;28;20247;-67
2020/12/07 05:33:30;;;;;;;7.05;5.57;;;;;;;;;;5095498;28;20637;-67
2020/12/07 05:35:57;;;;;;;7.43;6.72;;;;;;;;;;5095506;28;20173;-67
2020/12/07 05:38:32;;;;;;;4.30;3.90;;;;;;;;;;5095355;28;20165;-66
2020/12/07 05:41:00;;;;;;;4.22;3.83;;;;;;;;;;5095634;28;20172;-66
2020/12/07 05:43:27;;;;;;;4.65;4.15;;;;;;;;;;5095346;28;20169;-68
2020/12/07 05:45:56;;;;;;;4.57;4.18;;;;;;;;;;5095338;28;20644;-68
2020/12/07 05:48:22;;;;;;;5.37;4.87;;;;;;;;;;5095158;28;20168;-66
2020/12/07 05:50:49;;;;;;;5.78;4.28;;;;;;;;;;5095103;28;20684;-67
2020/12/07 05:53:14;;;;;;;4.45;4.05;;;;;;;;;;5095078;28;20176;-66
2020/12/07 05:55:40;;;;;;;7.95;6.70;;;;;;;;;;5095378;28;20293;-68
2020/12/07 05:58:07;;;;;;;5.53;4.93;;;;;;;;;;5095368;28;20198;-67
2020/12/07 06:00:33;;;;;;;7.45;4.72;;;;;;;;;;5095205;28;20176;-65
2020/12/07 06:03:00;;;;;;;4.38;3.97;;;;;;;;;;5094944;28;20172;-66
2020/12/07 06:05:26;;;;;;;4.70;4.20;;;;;;;;;;5095044;28;20645;-66
2020/12/07 06:08:20;;;;;;;4.10;3.70;;;;;;;;;;5094775;28;20189;-67
2020/12/07 06:10:56;;;;;;;5.83;4.60;;;;;;;;;;5094935;28;20197;-67
2020/12/07 06:13:24;;;;;;;5.22;4.72;;;;;;;;;;5094861;28;20221;-66
2020/12/07 06:15:51;;;;;;;3.88;3.58;;;;;;;;;;5094658;28;20229;-65
2020/12/07 06:18:28;;;;;;;4.80;3.97;;;;;;;;;;5094580;28;20173;-65
2020/12/07 06:21:04;;;;;;;4.25;3.75;;;;;;;;;;5094851;28;20161;-66
2020/12/07 06:23:50;;;;;;;6.43;5.82;;;;;;;;;;5094776;28;20503;-65
2020/12/07 06:26:18;;;;;;;6.25;5.65;;;;;;;;;;5094477;28;20276;-65
2020/12/07 06:28:48;;;;;;;4.68;4.28;;;;;;;;;;5094632;28;20177;-66
2020/12/07 06:31:15;;;;;;;9.05;7.90;;;;;;;;;;5094098;28;20246;-66
2020/12/07 06:33:48;;;;;;;6.65;5.95;;;;;;;;;;5094306;28;20315;-66
2020/12/07 06:36:23;;;;;;;5.22;4.72;;;;;;;;;;5093701;28;20157;-64
2020/12/07 06:38:49;;;;;;;8.45;7.63;;;;;;;;;;5094236;28;20172;-65
2020/12/07 06:41:17;;;;;;;7.20;5.63;;;;;;;;;;5094314;28;20169;-64
2020/12/07 06:43:56;;;;;;;5.32;4.85;;;;;;;;;;5094398;28;20196;-65
2020/12/07 06:47:11;;;;;;;8.77;7.87;;;;;;;;;;5094335;28;20533;-65
2020/12/07 06:52:12;;;;;;;6.83;5.87;;;;;;;;;;5094080;28;20525;-66
2020/12/07 06:57:31;;;;;;;8.83;7.97;;;;;;;;;;5094415;28;20270;-65
2020/12/07 07:00:20;;;;;;;7.10;5.10;;;;;;;;;;5093855;28;20255;-65
2020/12/07 07:02:48;;;;;;;8.00;4.63;;;;;;;;;;5088526;28;20227;-64
2020/12/07 07:05:19;;;;;;;4.50;3.55;;;;;;;;;;5093997;28;20206;-64
2020/12/07 07:07:45;;;;;;;5.15;4.65;;;;;;;;;;5093857;28;20185;-65
2020/12/07 07:10:13;;;;;;;4.43;4.00;;;;;;;;;;5094008;28;20287;-65
2020/12/07 07:12:39;;;;;;;4.53;3.30;;;;;;;;;;5094003;28;20660;-63
2020/12/07 07:15:06;;;;;;;4.25;3.55;;;;;;;;;;5093837;28;20520;-64
2020/12/07 07:17:36;;;;;;;7.80;7.00;;;;;;;;;;5093652;28;20169;-65
2020/12/07 07:20:04;;;;;;;3.97;3.58;;;;;;;;;;5093928;28;20515;-65
2020/12/07 07:22:30;;;;;;;4.80;4.40;;;;;;;;;;5093693;28;20176;-66
2020/12/07 07:25:02;;;;;;;4.60;4.00;;;;;;;;;;5093907;28;20183;-64
2020/12/07 07:30:13;;;;;;;4.53;3.80;;;;;;;;;;5093659;28;20309;-66
2020/12/07 07:32:40;;;;;;;4.28;3.88;;;;;;;;;;5093801;28;20680;-66
2020/12/07 07:35:06;;;;;;;5.07;3.80;;;;;;;;;;5093719;28;20168;-66
2020/12/07 07:37:31;;;;;;;4.20;3.78;;;;;;;;;;5093581;28;20172;-66
2020/12/07 07:40:00;;;;;;;4.50;3.90;;;;;;;;;;5093402;28;20607;-65
2020/12/07 07:42:26;;;;;;;4.88;3.67;;;;;;;;;;5093670;28;20205;-66
2020/12/07 07:44:52;;;;;;;7.18;3.67;;;;;;;;;;5093601;28;20177;-66
2020/12/07 07:47:27;;;;;;;7.82;3.60;;;;;;;;;;5096508;28;20178;-66
2020/12/07 08:06:14;;;;;;;5.65;4.22;;;;;;;;;;5097395;28;20211;-66
2020/12/07 08:17:53;;;;;;;4.90;4.00;;;;;;;;;;5097625;28;20205;-65
2020/12/07 08:20:21;;;;;;;6.85;3.53;;;;;;;;;;5097049;28;20249;-66
2020/12/07 08:23:01;;;;;;;4.68;3.70;;;;;;;;;;5097243;28;20273;-66
2020/12/07 08:25:40;;;;;;;5.50;3.22;;;;;;;;;;5097036;28;20177;-64
2020/12/07 08:28:22;;;;;;;4.15;3.42;;;;;;;;;;5096875;28;20187;-65
2020/12/07 08:31:05;;;;;;;5.60;3.42;;;;;;;;;;5096743;28;20225;-66
2020/12/07 08:33:32;;;;;;;4.70;3.75;;;;;;;;;;5096989;28;20176;-64
2020/12/07 08:35:58;;;;;;;5.97;3.80;;;;;;;;;;5096900;28;20255;-64
2020/12/07 08:38:36;;;;;;;4.13;3.47;;;;;;;;;;5097264;28;20599;-64
2020/12/07 08:41:13;;;;;;;9.73;3.38;;;;;;;;;;5096548;28;20180;-65
2020/12/07 08:43:40;;;;;;;4.10;3.55;;;;;;;;;;5096948;28;20164;-66
2020/12/07 08:46:08;;;;;;;4.75;3.67;;;;;;;;;;5096703;28;20176;-66
2020/12/07 08:48:34;;;;;;;4.40;3.17;;;;;;;;;;5096718;28;20184;-65
2020/12/07 08:50:59;;;;;;;4.88;3.60;;;;;;;;;;5096648;28;20286;-66
2020/12/07 08:53:24;;;;;;;8.00;3.45;;;;;;;;;;5096361;28;20169;-66
2020/12/07 08:55:50;;;;;;;4.55;3.38;;;;;;;;;;5096307;28;20256;-65
2020/12/07 08:58:16;;;;;;;5.63;3.20;;;;;;;;;;5095363;28;20184;-64
2020/12/07 09:00:41;;;;;;;3.60;3.30;;;;;;;;;;5096244;28;20191;-65
2020/12/07 09:03:07;;;;;;;6.40;4.13;;;;;;;;;;5096066;28;20542;-65
2020/12/07 09:05:32;;;;;;;5.85;3.47;;;;;;;;;;5096072;28;20259;-66
2020/12/07 09:07:57;;;;;;;7.40;4.00;;;;;;;;;;5096085;28;20201;-64
2020/12/07 09:10:22;;;;;;;5.45;3.72;;;;;;;;;;5095916;28;20685;-65
2020/12/07 09:12:48;;;;;;;7.07;3.67;;;;;;;;;;5095895;28;20177;-64
2020/12/07 09:15:13;;;;;;;8.60;3.63;;;;;;;;;;5096012;28;20207;-64
2020/12/07 09:17:38;;;;;;;6.65;3.70;;;;;;;;;;5095907;28;20191;-65
2020/12/07 09:20:04;;;;;;;3.63;3.20;;;;;;;;;;5095716;28;20212;-65
2020/12/07 09:22:29;;;;;;;4.57;3.25;;;;;;;;;;5095828;28;20259;-64
2020/12/07 09:24:55;;;;;;;4.82;3.28;;;;;;;;;;5095802;28;20584;-65
2020/12/07 09:27:20;;;;;;;3.53;2.87;;;;;;;;;;5095750;28;20177;-65
2020/12/07 09:29:45;;;;;;;4.18;3.10;;;;;;;;;;5095356;28;20220;-65
2020/12/07 09:32:10;;;;;;;4.82;3.20;;;;;;;;;;5095989;28;20251;-66
2020/12/07 09:34:37;;;;;;;5.88;3.50;;;;;;;;;;5095598;28;20173;-65
2020/12/07 09:37:02;;;;;;;3.35;3.03;;;;;;;;;;5095727;28;20177;-66
2020/12/07 09:39:28;;;;;;;4.07;3.25;;;;;;;;;;5095458;28;20241;-65
2020/12/07 09:41:53;;;;;;;3.22;2.92;;;;;;;;;;5095727;28;20184;-64
2020/12/07 09:44:19;;;;;;;3.83;3.30;;;;;;;;;;5095413;28;20181;-64
2020/12/07 09:46:44;;;;;;;3.97;3.17;;;;;;;;;;5095306;28;20176;-63
2020/12/07 09:49:09;;;;;;;6.10;3.45;;;;;;;;;;5093916;28;20237;-64
2020/12/07 09:51:34;;;;;;;3.53;3.20;;;;;;;;;;5095388;28;20199;-66
2020/12/07 09:54:00;;;;;;;3.10;2.80;;;;;;;;;;5095471;28;20549;-64
2020/12/07 09:56:29;;;;;;;4.50;3.13;;;;;;;;;;5095257;28;20192;-65
2020/12/07 09:58:55;;;;;;;6.43;3.20;;;;;;;;;;5095404;28;20625;-64
2020/12/07 10:01:21;;;;;;;3.15;2.85;;;;;;;;;;5095290;28;20181;-62
2020/12/07 10:03:46;;;;;;;3.23;2.93;;;;;;;;;;5095205;28;20550;-65
2020/12/07 10:06:11;;;;;;;5.45;3.08;;;;;;;;;;5094984;28;20201;-63
2020/12/07 10:08:37;;;;;;;5.22;3.10;;;;;;;;;;5094985;28;20523;-64
2020/12/07 10:11:02;;;;;;;3.72;2.72;;;;;;;;;;5094906;28;20207;-65
2020/12/07 10:13:27;;;;;;;4.03;3.20;;;;;;;;;;5095008;28;20181;-66
2020/12/07 10:15:53;;;;;;;6.05;2.97;;;;;;;;;;5094801;28;20181;-65
2020/12/07 10:18:18;;;;;;;5.00;2.90;;;;;;;;;;5094763;28;20207;-65
2020/12/07 10:20:45;;;;;;;3.28;2.97;;;;;;;;;;5094637;28;20184;-65
2020/12/07 10:23:11;;;;;;;3.40;2.80;;;;;;;;;;5094916;28;20180;-65
2020/12/07 10:25:36;;;;;;;2.72;2.53;;;;;;;;;;5094667;28;20187;-64
2020/12/07 10:28:01;;;;;;;3.70;2.53;;;;;;;;;;5094507;28;20183;-63
2020/12/07 10:30:27;;;;;;;3.22;2.78;;;;;;;;;;5094355;28;20232;-63
2020/12/07 10:32:52;;;;;;;2.97;2.65;;;;;;;;;;5094486;28;20181;-65
2020/12/07 10:35:17;;;;;;;3.15;2.85;;;;;;;;;;5094363;28;20231;-65
2020/12/07 10:37:42;;;;;;;2.78;2.58;;;;;;;;;;5094419;28;20608;-64
2020/12/07 10:40:08;;;;;;;2.50;2.30;;;;;;;;;;5094354;28;20187;-64
2020/12/07 10:42:33;;;;;;;2.67;2.17;;;;;;;;;;5094309;28;20626;-65
2020/12/07 10:44:58;;;;;;;3.88;2.58;;;;;;;;;;5094243;28;20191;-64
2020/12/07 10:47:23;;;;;;;3.35;2.38;;;;;;;;;;5094074;28;20228;-64
2020/12/07 10:49:49;;;;;;;3.28;2.53;;;;;;;;;;5093961;28;20220;-63
2020/12/07 10:52:14;;;;;;;2.65;2.45;;;;;;;;;;5094054;28;20173;-64
2020/12/07 10:54:39;;;;;;;2.47;2.28;;;;;;;;;;5094086;28;20219;-66
2020/12/07 10:57:04;;;;;;;2.33;2.13;;;;;;;;;;5093942;28;20568;-64
2020/12/07 10:59:30;;;;;;;2.20;2.00;;;;;;;;;;5093897;28;20298;-63
2020/12/07 11:01:56;;;;;;;3.95;2.22;;;;;;;;;;5093814;28;20184;-64
2020/12/07 11:04:21;;;;;;;2.20;2.00;;;;;;;;;;5094228;28;20192;-66
2020/12/07 11:06:49;;;;;;;2.50;2.30;;;;;;;;;;5093813;28;20193;-64
2020/12/07 11:09:22;;;;;;;2.58;2.38;;;;;;;;;;5094068;28;20184;-64
2020/12/07 11:11:47;;;;;;;4.38;2.22;;;;;;;;;;5093670;28;20204;-65
2020/12/07 11:14:13;;;;;;;7.15;2.42;;;;;;;;;;5093769;28;20185;-64
2020/12/07 11:16:38;;;;;;;3.53;2.38;;;;;;;;;;5093781;28;20176;-64
2020/12/07 11:19:03;;;;;;;3.50;2.85;;;;;;;;;;5093895;28;20168;-65
2020/12/07 11:21:29;;;;;;;4.80;2.35;;;;;;;;;;5093082;28;20169;-65
2020/12/07 11:23:54;;;;;;;4.23;2.53;;;;;;;;;;5093590;28;20219;-65
2020/12/07 11:26:19;;;;;;;3.20;2.60;;;;;;;;;;5093630;28;20180;-65
2020/12/07 11:28:46;;;;;;;4.53;2.70;;;;;;;;;;5093525;28;20634;-65
2020/12/07 11:31:12;;;;;;;4.15;2.70;;;;;;;;;;5093190;28;20285;-67
2020/12/07 11:33:39;;;;;;;2.90;2.47;;;;;;;;;;5093645;28;20201;-66
2020/12/07 11:36:04;;;;;;;4.25;2.35;;;;;;;;;;5093385;28;20180;-66
2020/12/07 11:38:41;;;;;;;4.07;2.40;;;;;;;;;;5093597;28;20230;-64
2020/12/07 11:46:01;;;;;;;2.53;2.28;;;;;;;;;;5093435;28;20555;-65
2020/12/07 11:48:27;;;;;;;2.60;2.40;;;;;;;;;;5093415;28;20184;-65
2020/12/07 11:50:52;;;;;;;3.53;2.60;;;;;;;;;;5093344;28;20265;-64
2020/12/07 11:53:17;;;;;;;2.53;2.33;;;;;;;;;;5093765;28;20622;-66
2020/12/07 11:55:46;;;;;;;2.70;2.50;;;;;;;;;;5093159;28;20172;-65
2020/12/07 11:58:11;;;;;;;3.27;2.30;;;;;;;;;;5093523;28;20264;-64
2020/12/07 12:00:37;;;;;;;2.42;2.22;;;;;;;;;;5093452;28;20637;-65
2020/12/07 12:03:02;;;;;;;2.85;2.40;;;;;;;;;;5093159;28;20261;-65
2020/12/07 12:05:28;;;;;;;3.40;2.70;;;;;;;;;;5093259;28;20698;-64
2020/12/07 12:07:53;;;;;;;3.10;2.50;;;;;;;;;;5093219;28;20242;-65
2020/12/07 12:10:18;;;;;;;3.03;2.30;;;;;;;;;;5093187;28;20205;-65
2020/12/07 12:12:43;;;;;;;5.93;2.42;;;;;;;;;;5093098;28;20622;-65
2020/12/07 12:15:09;;;;;;;3.30;2.20;;;;;;;;;;5093078;28;20183;-65
2020/12/07 12:17:34;;;;;;;3.30;2.47;;;;;;;;;;5093116;28;20634;-65
2020/12/07 12:19:59;;;;;;;2.75;2.30;;;;;;;;;;5092999;28;20181;-64
2020/12/07 12:22:24;;;;;;;3.45;2.78;;;;;;;;;;5092953;28;20172;-65
2020/12/07 12:24:50;;;;;;;3.00;2.50;;;;;;;;;;5093260;28;20172;-65
2020/12/07 12:27:16;;;;;;;2.20;2.00;;;;;;;;;;5093247;28;20176;-65
2020/12/07 12:29:42;;;;;;;3.30;2.40;;;;;;;;;;5093046;28;20272;-65
2020/12/07 12:32:07;;;;;;;2.60;2.40;;;;;;;;;;5092889;28;20227;-65
2020/12/07 12:34:32;;;;;;;3.80;2.00;;;;;;;;;;5095683;28;20626;-65
2020/12/07 12:36:58;;;;;;;2.53;2.08;;;;;;;;;;5096616;28;20181;-65
2020/12/07 12:39:23;;;;;;;6.22;2.58;;;;;;;;;;5096531;28;20168;-65
2020/12/07 12:41:48;;;;;;;2.40;2.20;;;;;;;;;;5096576;28;20260;-65
2020/12/07 12:44:14;;;;;;;3.83;2.30;;;;;;;;;;5096671;28;20184;-65
2020/12/07 12:46:39;;;;;;;3.00;2.20;;;;;;;;;;5096876;28;20706;-65
2020/12/07 12:49:05;;;;;;;2.67;2.40;;;;;;;;;;5096424;28;20176;-65
2020/12/07 12:51:31;;;;;;;2.15;1.95;;;;;;;;;;5096332;28;20200;-65
2020/12/07 12:53:58;;;;;;;2.70;2.22;;;;;;;;;;5096319;28;20179;-65
2020/12/07 12:56:23;;;;;;;2.45;2.25;;;;;;;;;;5096184;28;20169;-65
2020/12/07 12:58:48;;;;;;;4.80;2.75;;;;;;;;;;5096370;28;20338;-65
2020/12/07 13:01:14;;;;;;;4.85;2.63;;;;;;;;;;5096229;28;20169;-65
2020/12/07 13:03:41;;;;;;;3.00;2.47;;;;;;;;;;5096193;28;20192;-65
2020/12/07 13:06:06;;;;;;;4.00;2.65;;;;;;;;;;5096035;28;20669;-64
2020/12/07 13:08:32;;;;;;;3.05;2.25;;;;;;;;;;5096184;28;20179;-67
2020/12/07 13:10:57;;;;;;;3.70;2.38;;;;;;;;;;5095892;28;20783;-64
2020/12/07 13:13:22;;;;;;;5.30;2.83;;;;;;;;;;5096231;28;20185;-65
2020/12/07 13:15:58;;;;;;;5.88;3.08;;;;;;;;;;5095901;28;20633;-66
2020/12/07 13:18:26;;;;;;;4.25;3.03;;;;;;;;;;5096169;28;20514;-65
2020/12/07 13:21:00;;;;;;;6.85;3.65;;;;;;;;;;5096115;28;20177;-65
2020/12/07 13:23:33;;;;;;;5.15;3.47;;;;;;;;;;5096057;28;20528;-65
2020/12/07 13:28:30;;;;;;;3.63;3.33;;;;;;;;;;5096176;28;20172;-66
2020/12/07 13:30:56;;;;;;;7.30;3.88;;;;;;;;;;5095486;28;20314;-65
2020/12/07 13:33:21;;;;;;;5.15;3.38;;;;;;;;;;5095586;28;20227;-64
2020/12/07 13:35:46;;;;;;;5.63;3.38;;;;;;;;;;5095935;28;20604;-64
2020/12/07 13:38:12;;;;;;;4.45;3.20;;;;;;;;;;5095485;28;20176;-64
2020/12/07 13:40:37;;;;;;;5.97;3.00;;;;;;;;;;5095584;28;20189;-64
2020/12/07 13:43:04;;;;;;;3.38;2.78;;;;;;;;;;5095475;28;20183;-64
2020/12/07 13:45:30;;;;;;;3.20;2.90;;;;;;;;;;5095101;28;20173;-64
2020/12/07 13:47:56;;;;;;;3.58;3.20;;;;;;;;;;5095334;28;20541;-64
2020/12/07 13:50:22;;;;;;;3.00;2.70;;;;;;;;;;5095345;28;20232;-64
2020/12/07 13:52:47;;;;;;;3.35;2.67;;;;;;;;;;5095266;28;20513;-64
2020/12/07 13:55:12;;;;;;;4.18;2.30;;;;;;;;;;5095366;28;20176;-64
2020/12/07 13:57:38;;;;;;;3.05;2.20;;;;;;;;;;5095250;28;20173;-65
2020/12/07 14:00:05;;;;;;;4.90;2.33;;;;;;;;;;5095070;28;20204;-65
2020/12/07 14:02:30;;;;;;;2.40;2.20;;;;;;;;;;5095081;28;20169;-65
2020/12/07 14:05:04;;;;;;;2.60;2.40;;;;;;;;;;5095071;28;20172;-65
2020/12/07 14:07:30;;;;;;;2.63;2.10;;;;;;;;;;5095187;28;20202;-66
2020/12/07 14:09:56;;;;;;;2.50;2.30;;;;;;;;;;5094776;28;20180;-64
2020/12/07 14:12:22;;;;;;;2.58;2.15;;;;;;;;;;5093598;28;20173;-64
2020/12/07 14:14:48;;;;;;;2.30;2.10;;;;;;;;;;5094913;28;20168;-64
2020/12/07 14:17:15;;;;;;;2.22;2.03;;;;;;;;;;5094723;28;20176;-65
2020/12/07 14:19:49;;;;;;;2.13;1.75;;;;;;;;;;5094782;28;20179;-65
2020/12/07 14:25:12;;;;;;;2.28;2.08;;;;;;;;;;5094658;28;20683;-65
2020/12/07 14:40:32;;;;;;;1.70;1.60;;;;;;;;;;5094442;28;20238;-65
2020/12/07 14:42:57;;;;;;;1.90;1.50;;;;;;;;;;5094243;28;20205;-64
2020/12/07 14:45:26;;;;;;;1.80;1.70;;;;;;;;;;5094313;28;20187;-65
2020/12/07 14:47:59;;;;;;;1.70;1.60;;;;;;;;;;5094527;28;20204;-66
2020/12/07 14:50:32;;;;;;;1.52;1.42;;;;;;;;;;5094399;28;20177;-63
2020/12/07 14:53:01;;;;;;;1.55;1.45;;;;;;;;;;5094695;28;20180;-64
2020/12/07 14:58:46;;;;;;;1.10;1.10;;;;;;;;;;5081988;28;20223;-64
2020/12/07 15:01:23;;;;;;;2.22;1.40;;;;;;;;;;5094524;28;20157;-63
2020/12/07 15:07:22;;;;;;;1.50;1.40;;;;;;;;;;5094070;28;20237;-64
2020/12/07 15:12:19;;;;;;;2.53;1.40;;;;;;;;;;5094046;28;20192;-65
2020/12/07 15:14:44;;;;;;;2.38;1.50;;;;;;;;;;5094145;28;20161;-63
2020/12/07 15:17:09;;;;;;;1.40;1.30;;;;;;;;;;5093850;28;20664;-65
2020/12/07 15:19:34;;;;;;;2.50;1.47;;;;;;;;;;5093631;28;20247;-64
2020/12/07 15:22:00;;;;;;;1.67;1.57;;;;;;;;;;5093650;28;20176;-63
2020/12/07 15:24:25;;;;;;;1.57;1.47;;;;;;;;;;5093673;28;20177;-64
2020/12/07 15:26:50;;;;;;;1.52;1.27;;;;;;;;;;5093590;28;20282;-64
2020/12/07 15:29:16;;;;;;;2.20;1.45;;;;;;;;;;5093841;28;20205;-63
2020/12/07 15:31:41;;;;;;;1.65;1.40;;;;;;;;;;5093416;28;20258;-63
2020/12/07 15:34:07;;;;;;;1.63;1.30;;;;;;;;;;5093817;28;20169;-64
2020/12/07 15:36:33;;;;;;;1.40;1.30;;;;;;;;;;5093584;28;20173;-64
2020/12/07 15:38:58;;;;;;;1.38;1.27;;;;;;;;;;5093886;28;20205;-63
2020/12/07 15:41:23;;;;;;;2.35;1.58;;;;;;;;;;5093606;28;20169;-62
2020/12/07 15:43:50;;;;;;;1.35;1.25;;;;;;;;;;5093750;28;20185;-63
2020/12/07 15:46:22;;;;;;;2.30;1.20;;;;;;;;;;5093393;28;20173;-64
2020/12/07 15:48:47;;;;;;;1.40;1.30;;;;;;;;;;5093707;28;20157;-65